Portada
METAR-TAF:

METAR-TAF

Aeropuertos :

Winchester, Tennessee, Estados Unidos

latitud: 35-10-39N, longitud: 086-03-58W, altitud: 298 m

Observación

El informe se hizo hace 30 minutos, a las 22:55 UTC
Viento 15 kt del oeste-suroeste
Temperatura 8°C
Humedad 66%
Presión 1014 hPa
Visibilidad: 16.1 km
Cielo nuboso a una altura de 3100 ft
Cielo nuboso a una altura de 3700 ft
Cielo cubierto a una altura de 5500 ft

METAR: KBGF 242255Z AUTO 25015KT 10SM BKN031 BKN037 OVC055 08/02 A2993 RMK A01

Hora: 17:25 (23:25 UTC)


TAF: falta

Observaciones y pronósticos meteorológicos de más de 4000 aeropuertos (mensajes METAR y TAF).

Los puntos amarillos y rojos representan las estaciones disponibles.

Ponga el ratón en el punto deseado para ver el nombre de la estación.

Haga clic para ver las observaciones y los pronósticos meteorológicos.

Para cambiar el mapa : haga clic en los botones verdes con una cruz de color negro para hacer un zoom, en el botón verde con un guión para alejar o en las flechas verdes para mapas adyacentes.


METAR-TAF: